sensor_id;sensor_type;location;lat;lon;timestamp;pressure;altitude;pressure_sealevel;temperature;humidity
61963;BME280;47927;42.646;23.096;2022-10-15T00:02:22;92344.22;;;13.29;50.48
61963;BME280;47927;42.646;23.096;2022-10-15T00:04:48;92336.66;;;13.02;51.50
61963;BME280;47927;42.646;23.096;2022-10-15T00:07:13;92333.00;;;12.34;54.25
61963;BME280;47927;42.646;23.096;2022-10-15T00:09:39;92329.06;;;12.61;53.78
61963;BME280;47927;42.646;23.096;2022-10-15T00:12:04;92332.69;;;12.46;54.93
61963;BME280;47927;42.646;23.096;2022-10-15T00:14:30;92333.38;;;12.32;55.52
61963;BME280;47927;42.646;23.096;2022-10-15T00:16:56;92328.59;;;12.45;55.41
61963;BME280;47927;42.646;23.096;2022-10-15T00:19:21;92332.28;;;12.37;56.08
61963;BME280;47927;42.646;23.096;2022-10-15T00:21:47;92332.13;;;12.08;57.03
61963;BME280;47927;42.646;23.096;2022-10-15T00:24:12;92328.31;;;11.95;57.95
61963;BME280;47927;42.646;23.096;2022-10-15T00:26:38;92329.88;;;12.10;57.63
61963;BME280;47927;42.646;23.096;2022-10-15T00:29:04;92321.19;;;11.44;59.54
61963;BME280;47927;42.646;23.096;2022-10-15T00:31:30;92321.34;;;10.83;61.98
61963;BME280;47927;42.646;23.096;2022-10-15T00:33:58;92319.31;;;11.03;61.44
61963;BME280;47927;42.646;23.096;2022-10-15T00:36:27;92323.22;;;11.68;59.13
61963;BME280;47927;42.646;23.096;2022-10-15T00:38:53;92309.31;;;11.50;59.79
61963;BME280;47927;42.646;23.096;2022-10-15T00:41:32;92315.38;;;11.64;59.28
61963;BME280;47927;42.646;23.096;2022-10-15T00:47:10;92310.88;;;11.61;59.63
61963;BME280;47927;42.646;23.096;2022-10-15T00:52:26;92306.44;;;11.66;59.80
61963;BME280;47927;42.646;23.096;2022-10-15T00:55:19;92305.56;;;11.95;58.26
61963;BME280;47927;42.646;23.096;2022-10-15T00:57:48;92310.13;;;12.09;58.24
61963;BME280;47927;42.646;23.096;2022-10-15T01:00:15;92307.91;;;12.15;58.11
61963;BME280;47927;42.646;23.096;2022-10-15T01:02:43;92308.25;;;11.58;59.74
61963;BME280;47927;42.646;23.096;2022-10-15T01:05:09;92302.03;;;11.77;59.66
61963;BME280;47927;42.646;23.096;2022-10-15T01:07:37;92302.66;;;11.59;60.15
61963;BME280;47927;42.646;23.096;2022-10-15T01:10:04;92300.09;;;11.63;60.23
61963;BME280;47927;42.646;23.096;2022-10-15T01:17:44;92302.13;;;11.84;59.45
61963;BME280;47927;42.646;23.096;2022-10-15T01:34:03;92304.50;;;11.55;60.51
61963;BME280;47927;42.646;23.096;2022-10-15T01:43:19;92298.41;;;11.37;62.00
61963;BME280;47927;42.646;23.096;2022-10-15T01:46:44;92306.19;;;11.33;62.62
61963;BME280;47927;42.646;23.096;2022-10-15T01:49:20;92299.44;;;11.29;62.44
61963;BME280;47927;42.646;23.096;2022-10-15T01:51:48;92297.53;;;11.70;61.07
61963;BME280;47927;42.646;23.096;2022-10-15T01:54:17;92298.25;;;11.67;61.23
61963;BME280;47927;42.646;23.096;2022-10-15T01:56:46;92304.66;;;11.77;60.98
61963;BME280;47927;42.646;23.096;2022-10-15T01:59:24;92300.59;;;11.35;62.49
61963;BME280;47927;42.646;23.096;2022-10-15T02:01:52;92299.44;;;11.77;60.73
61963;BME280;47927;42.646;23.096;2022-10-15T02:04:24;92301.69;;;11.78;60.76
61963;BME280;47927;42.646;23.096;2022-10-15T02:07:01;92300.66;;;11.86;60.52
61963;BME280;47927;42.646;23.096;2022-10-15T02:14:53;92302.78;;;12.36;58.96
61963;BME280;47927;42.646;23.096;2022-10-15T02:17:34;92304.28;;;12.34;58.92
61963;BME280;47927;42.646;23.096;2022-10-15T02:20:17;92283.56;;;11.96;59.62
61963;BME280;47927;42.646;23.096;2022-10-15T02:22:53;92307.69;;;11.82;60.24
61963;BME280;47927;42.646;23.096;2022-10-15T02:25:22;92304.31;;;11.78;60.23
61963;BME280;47927;42.646;23.096;2022-10-15T02:27:51;92302.66;;;11.56;61.29
61963;BME280;47927;42.646;23.096;2022-10-15T02:30:19;92309.56;;;11.37;61.65
61963;BME280;47927;42.646;23.096;2022-10-15T02:32:48;92306.88;;;11.27;62.14
61963;BME280;47927;42.646;23.096;2022-10-15T02:35:20;92304.81;;;11.47;61.64
61963;BME280;47927;42.646;23.096;2022-10-15T02:37:48;92306.00;;;11.56;60.94
61963;BME280;47927;42.646;23.096;2022-10-15T02:40:20;92307.78;;;11.04;62.94
61963;BME280;47927;42.646;23.096;2022-10-15T02:42:48;92312.03;;;11.20;62.30
61963;BME280;47927;42.646;23.096;2022-10-15T02:45:15;92306.69;;;10.68;64.01
61963;BME280;47927;42.646;23.096;2022-10-15T02:47:40;92301.69;;;11.30;62.09
61963;BME280;47927;42.646;23.096;2022-10-15T02:50:06;92306.69;;;11.50;61.70
61963;BME280;47927;42.646;23.096;2022-10-15T02:52:32;92304.84;;;11.54;61.37
61963;BME280;47927;42.646;23.096;2022-10-15T02:54:58;92308.06;;;11.81;60.35
61963;BME280;47927;42.646;23.096;2022-10-15T02:57:24;92296.47;;;11.78;60.39
61963;BME280;47927;42.646;23.096;2022-10-15T02:59:50;92298.38;;;11.81;60.44
61963;BME280;47927;42.646;23.096;2022-10-15T03:02:15;92302.44;;;11.31;62.10
61963;BME280;47927;42.646;23.096;2022-10-15T03:04:41;92300.13;;;11.22;62.54
61963;BME280;47927;42.646;23.096;2022-10-15T03:07:07;92297.41;;;11.08;63.00
61963;BME280;47927;42.646;23.096;2022-10-15T03:09:32;92294.31;;;11.39;62.38
61963;BME280;47927;42.646;23.096;2022-10-15T03:12:00;92302.06;;;11.29;62.89
61963;BME280;47927;42.646;23.096;2022-10-15T03:14:25;92299.41;;;11.70;61.40
61963;BME280;47927;42.646;23.096;2022-10-15T03:16:51;92300.75;;;11.53;61.89
61963;BME280;47927;42.646;23.096;2022-10-15T03:19:17;92287.56;;;11.35;62.13
61963;BME280;47927;42.646;23.096;2022-10-15T03:21:44;92304.78;;;11.02;63.41
61963;BME280;47927;42.646;23.096;2022-10-15T03:24:13;92302.56;;;11.01;63.33
61963;BME280;47927;42.646;23.096;2022-10-15T03:26:39;92309.06;;;11.21;62.53
61963;BME280;47927;42.646;23.096;2022-10-15T03:29:04;92309.50;;;10.89;63.81
61963;BME280;47927;42.646;23.096;2022-10-15T03:31:34;92305.56;;;10.69;64.70
61963;BME280;47927;42.646;23.096;2022-10-15T03:34:02;92298.34;;;10.89;63.65
61963;BME280;47927;42.646;23.096;2022-10-15T03:36:28;92309.31;;;10.71;64.44
61963;BME280;47927;42.646;23.096;2022-10-15T03:38:54;92301.47;;;10.38;66.13
61963;BME280;47927;42.646;23.096;2022-10-15T03:41:20;92312.31;;;10.73;64.69
61963;BME280;47927;42.646;23.096;2022-10-15T03:43:47;92316.91;;;10.87;64.78
61963;BME280;47927;42.646;23.096;2022-10-15T03:46:14;92314.16;;;11.07;64.57
61963;BME280;47927;42.646;23.096;2022-10-15T03:48:42;92313.88;;;11.19;64.10
61963;BME280;47927;42.646;23.096;2022-10-15T03:51:11;92313.53;;;11.21;63.89
61963;BME280;47927;42.646;23.096;2022-10-15T03:53:38;92312.25;;;11.04;64.41
61963;BME280;47927;42.646;23.096;2022-10-15T03:56:05;92315.47;;;10.90;65.34
61963;BME280;47927;42.646;23.096;2022-10-15T03:58:31;92311.56;;;11.10;64.60
61963;BME280;47927;42.646;23.096;2022-10-15T04:01:00;92314.19;;;11.10;64.25
61963;BME280;47927;42.646;23.096;2022-10-15T04:03:26;92304.41;;;11.45;63.04
61963;BME280;47927;42.646;23.096;2022-10-15T04:05:52;92305.13;;;11.41;62.74
61963;BME280;47927;42.646;23.096;2022-10-15T04:08:21;92297.25;;;11.34;62.95
61963;BME280;47927;42.646;23.096;2022-10-15T04:10:46;92295.56;;;11.12;63.60
61963;BME280;47927;42.646;23.096;2022-10-15T04:13:12;92303.03;;;10.76;64.60
61963;BME280;47927;42.646;23.096;2022-10-15T04:15:39;92304.25;;;10.86;64.51
61963;BME280;47927;42.646;23.096;2022-10-15T04:18:08;92308.69;;;10.85;64.42
61963;BME280;47927;42.646;23.096;2022-10-15T04:20:34;92307.75;;;10.67;65.30
61963;BME280;47927;42.646;23.096;2022-10-15T04:23:10;92309.41;;;10.82;64.74
61963;BME280;47927;42.646;23.096;2022-10-15T04:25:38;92323.78;;;10.65;65.74
61963;BME280;47927;42.646;23.096;2022-10-15T04:28:04;92313.56;;;10.87;64.95
61963;BME280;47927;42.646;23.096;2022-10-15T04:30:32;92318.19;;;10.67;65.99
61963;BME280;47927;42.646;23.096;2022-10-15T04:32:59;92322.91;;;10.91;65.12
61963;BME280;47927;42.646;23.096;2022-10-15T04:35:25;92321.56;;;10.37;67.11
61963;BME280;47927;42.646;23.096;2022-10-15T04:38:02;92331.72;;;10.46;67.24
61963;BME280;47927;42.646;23.096;2022-10-15T04:40:47;92321.69;;;10.82;66.07
61963;BME280;47927;42.646;23.096;2022-10-15T04:43:13;92330.91;;;10.72;66.33
61963;BME280;47927;42.646;23.096;2022-10-15T04:45:39;92326.00;;;11.01;65.18
61963;BME280;47927;42.646;23.096;2022-10-15T04:48:04;92326.94;;;10.85;65.63
61963;BME280;47927;42.646;23.096;2022-10-15T04:50:30;92342.22;;;10.83;66.02
61963;BME280;47927;42.646;23.096;2022-10-15T04:53:17;92334.84;;;10.92;65.74
61963;BME280;47927;42.646;23.096;2022-10-15T04:55:45;92322.41;;;11.12;64.89
61963;BME280;47927;42.646;23.096;2022-10-15T04:58:11;92330.72;;;11.25;64.59
61963;BME280;47927;42.646;23.096;2022-10-15T05:00:38;92346.78;;;11.31;65.19
61963;BME280;47927;42.646;23.096;2022-10-15T05:03:29;92337.16;;;10.98;65.90
61963;BME280;47927;42.646;23.096;2022-10-15T05:05:59;92327.66;;;11.16;65.02
61963;BME280;47927;42.646;23.096;2022-10-15T05:08:26;92331.47;;;11.26;64.62
61963;BME280;47927;42.646;23.096;2022-10-15T05:11:19;92348.06;;;10.77;66.33
61963;BME280;47927;42.646;23.096;2022-10-15T05:13:46;92331.13;;;10.93;65.54
61963;BME280;47927;42.646;23.096;2022-10-15T05:18:40;92363.41;;;10.82;66.40
61963;BME280;47927;42.646;23.096;2022-10-15T05:21:07;92353.91;;;11.00;66.09
61963;BME280;47927;42.646;23.096;2022-10-15T05:23:34;92356.66;;;11.14;65.25
61963;BME280;47927;42.646;23.096;2022-10-15T05:26:14;92359.28;;;11.55;64.03
61963;BME280;47927;42.646;23.096;2022-10-15T05:28:40;92361.16;;;11.14;65.36
61963;BME280;47927;42.646;23.096;2022-10-15T05:31:07;92372.13;;;10.97;66.02
61963;BME280;47927;42.646;23.096;2022-10-15T05:33:34;92378.13;;;11.34;65.23
61963;BME280;47927;42.646;23.096;2022-10-15T05:36:27;92372.53;;;10.99;66.73
61963;BME280;47927;42.646;23.096;2022-10-15T05:38:56;92373.00;;;11.86;63.92
61963;BME280;47927;42.646;23.096;2022-10-15T05:41:23;92371.53;;;11.48;65.04
61963;BME280;47927;42.646;23.096;2022-10-15T05:43:51;92367.56;;;11.61;64.88
61963;BME280;47927;42.646;23.096;2022-10-15T05:46:23;92371.50;;;11.85;63.77
61963;BME280;47927;42.646;23.096;2022-10-15T05:48:50;92388.13;;;12.14;62.25
61963;BME280;47927;42.646;23.096;2022-10-15T05:51:16;92373.09;;;12.00;63.57
61963;BME280;47927;42.646;23.096;2022-10-15T05:53:42;92378.47;;;12.22;62.71
61963;BME280;47927;42.646;23.096;2022-10-15T05:56:14;92378.88;;;12.27;62.78
61963;BME280;47927;42.646;23.096;2022-10-15T05:58:40;92373.16;;;12.73;61.28
61963;BME280;47927;42.646;23.096;2022-10-15T06:01:08;92381.00;;;12.73;60.81
61963;BME280;47927;42.646;23.096;2022-10-15T06:03:37;92380.94;;;12.59;61.07
61963;BME280;47927;42.646;23.096;2022-10-15T06:06:03;92380.31;;;12.87;60.31
61963;BME280;47927;42.646;23.096;2022-10-15T06:08:34;92374.56;;;12.57;60.39
61963;BME280;47927;42.646;23.096;2022-10-15T06:11:02;92388.38;;;12.61;60.47
61963;BME280;47927;42.646;23.096;2022-10-15T06:13:28;92387.81;;;12.23;61.60
61963;BME280;47927;42.646;23.096;2022-10-15T06:15:54;92390.50;;;12.37;60.72
61963;BME280;47927;42.646;23.096;2022-10-15T06:18:19;92396.31;;;12.78;59.29
61963;BME280;47927;42.646;23.096;2022-10-15T06:20:51;92400.50;;;12.24;60.88
61963;BME280;47927;42.646;23.096;2022-10-15T06:23:17;92386.38;;;12.32;60.82
61963;BME280;47927;42.646;23.096;2022-10-15T06:25:43;92398.44;;;12.51;59.93
61963;BME280;47927;42.646;23.096;2022-10-15T06:28:08;92400.25;;;12.44;60.56
61963;BME280;47927;42.646;23.096;2022-10-15T06:30:40;92401.44;;;14.73;55.07
61963;BME280;47927;42.646;23.096;2022-10-15T06:33:05;92399.91;;;17.64;46.84
61963;BME280;47927;42.646;23.096;2022-10-15T06:35:31;92409.78;;;19.80;40.91
61963;BME280;47927;42.646;23.096;2022-10-15T06:38:03;92409.00;;;20.94;37.91
61963;BME280;47927;42.646;23.096;2022-10-15T06:40:30;92414.16;;;20.85;37.65
61963;BME280;47927;42.646;23.096;2022-10-15T06:43:06;92401.63;;;22.46;35.08
61963;BME280;47927;42.646;23.096;2022-10-15T06:45:37;92405.28;;;24.34;32.06
61963;BME280;47927;42.646;23.096;2022-10-15T06:48:07;92409.22;;;25.43;30.03
61963;BME280;47927;42.646;23.096;2022-10-15T06:50:33;92416.81;;;24.99;29.39
61963;BME280;47927;42.646;23.096;2022-10-15T06:52:59;92419.91;;;25.25;29.13
61963;BME280;47927;42.646;23.096;2022-10-15T06:55:26;92421.22;;;23.09;31.51
61963;BME280;47927;42.646;23.096;2022-10-15T06:57:54;92422.09;;;23.50;31.25
61963;BME280;47927;42.646;23.096;2022-10-15T07:00:21;92413.97;;;22.02;32.97
61963;BME280;47927;42.646;23.096;2022-10-15T07:02:48;92415.13;;;23.75;30.71
61963;BME280;47927;42.646;23.096;2022-10-15T07:05:13;92426.97;;;24.14;30.19
61963;BME280;47927;42.646;23.096;2022-10-15T07:07:39;92418.69;;;22.93;31.89
61963;BME280;47927;42.646;23.096;2022-10-15T07:10:05;92434.59;;;24.34;30.29
61963;BME280;47927;42.646;23.096;2022-10-15T07:12:32;92436.47;;;23.62;30.64
61963;BME280;47927;42.646;23.096;2022-10-15T07:14:57;92440.63;;;25.02;29.30
61963;BME280;47927;42.646;23.096;2022-10-15T07:17:23;92439.34;;;25.26;28.54
61963;BME280;47927;42.646;23.096;2022-10-15T07:19:49;92435.16;;;25.34;28.70
61963;BME280;47927;42.646;23.096;2022-10-15T07:22:15;92435.31;;;25.02;28.53
61963;BME280;47927;42.646;23.096;2022-10-15T07:24:40;92429.22;;;24.84;28.83
61963;BME280;47927;42.646;23.096;2022-10-15T07:27:06;92427.88;;;24.20;29.62
61963;BME280;47927;42.646;23.096;2022-10-15T07:29:31;92420.78;;;24.26;29.80
61963;BME280;47927;42.646;23.096;2022-10-15T07:31:57;92427.16;;;25.52;28.13
61963;BME280;47927;42.646;23.096;2022-10-15T07:34:24;92424.16;;;26.44;27.12
61963;BME280;47927;42.646;23.096;2022-10-15T07:36:49;92413.63;;;26.41;27.15
61963;BME280;47927;42.646;23.096;2022-10-15T07:39:15;92422.63;;;27.00;26.23
61963;BME280;47927;42.646;23.096;2022-10-15T07:41:43;92425.53;;;26.40;26.78
61963;BME280;47927;42.646;23.096;2022-10-15T07:44:09;92418.66;;;26.48;26.22
61963;BME280;47927;42.646;23.096;2022-10-15T07:46:34;92425.09;;;26.89;26.41
61963;BME280;47927;42.646;23.096;2022-10-15T07:49:00;92428.19;;;26.73;25.91
61963;BME280;47927;42.646;23.096;2022-10-15T07:51:25;92432.97;;;25.23;28.24
61963;BME280;47927;42.646;23.096;2022-10-15T07:53:51;92434.56;;;25.02;28.14
61963;BME280;47927;42.646;23.096;2022-10-15T07:56:17;92429.16;;;25.66;27.65
61963;BME280;47927;42.646;23.096;2022-10-15T07:58:43;92422.34;;;26.17;27.02
61963;BME280;47927;42.646;23.096;2022-10-15T08:01:16;92426.25;;;26.40;26.51
61963;BME280;47927;42.646;23.096;2022-10-15T08:03:42;92427.59;;;26.45;26.47
61963;BME280;47927;42.646;23.096;2022-10-15T08:06:08;92418.94;;;26.17;27.14
61963;BME280;47927;42.646;23.096;2022-10-15T08:08:34;92435.41;;;26.57;26.35
61963;BME280;47927;42.646;23.096;2022-10-15T08:11:07;92440.00;;;26.14;26.79
61963;BME280;47927;42.646;23.096;2022-10-15T08:13:33;92426.72;;;25.08;27.66
61963;BME280;47927;42.646;23.096;2022-10-15T08:15:59;92430.53;;;24.61;28.20
61963;BME280;47927;42.646;23.096;2022-10-15T08:18:24;92424.88;;;25.69;26.89
61963;BME280;47927;42.646;23.096;2022-10-15T08:20:51;92429.22;;;25.02;27.50
61963;BME280;47927;42.646;23.096;2022-10-15T08:23:16;92415.31;;;25.35;27.82
61963;BME280;47927;42.646;23.096;2022-10-15T08:25:43;92435.78;;;25.29;26.90
61963;BME280;47927;42.646;23.096;2022-10-15T08:28:11;92431.25;;;24.61;27.73
61963;BME280;47927;42.646;23.096;2022-10-15T08:30:36;92421.53;;;25.13;27.94
61963;BME280;47927;42.646;23.096;2022-10-15T08:33:08;92439.88;;;24.25;28.50
61963;BME280;47927;42.646;23.096;2022-10-15T08:35:34;92413.44;;;23.90;29.76
61963;BME280;47927;42.646;23.096;2022-10-15T08:38:03;92402.69;;;24.03;29.52
61963;BME280;47927;42.646;23.096;2022-10-15T08:40:31;92414.59;;;23.36;29.88
61963;BME280;47927;42.646;23.096;2022-10-15T08:42:57;92408.84;;;23.59;29.48
61963;BME280;47927;42.646;23.096;2022-10-15T08:45:33;92410.75;;;22.58;32.15
61963;BME280;47927;42.646;23.096;2022-10-15T08:48:13;92411.31;;;23.54;29.92
61963;BME280;47927;42.646;23.096;2022-10-15T08:50:49;92411.72;;;22.39;32.41
61963;BME280;47927;42.646;23.096;2022-10-15T08:53:19;92410.88;;;23.77;29.66
61963;BME280;47927;42.646;23.096;2022-10-15T08:55:49;92421.84;;;24.38;29.10
61963;BME280;47927;42.646;23.096;2022-10-15T08:58:27;92423.88;;;24.16;29.06
61963;BME280;47927;42.646;23.096;2022-10-15T09:01:00;92417.09;;;23.83;29.29
61963;BME280;47927;42.646;23.096;2022-10-15T09:06:04;92425.06;;;24.92;27.84
61963;BME280;47927;42.646;23.096;2022-10-15T09:11:22;92422.06;;;24.44;27.73
61963;BME280;47927;42.646;23.096;2022-10-15T09:13:54;92419.34;;;22.84;30.00
61963;BME280;47927;42.646;23.096;2022-10-15T09:16:31;92406.78;;;22.28;31.28
61963;BME280;47927;42.646;23.096;2022-10-15T09:19:02;92433.75;;;22.74;30.94
61963;BME280;47927;42.646;23.096;2022-10-15T09:21:29;92415.84;;;21.50;31.20
61963;BME280;47927;42.646;23.096;2022-10-15T09:24:00;92420.22;;;21.82;31.65
61963;BME280;47927;42.646;23.096;2022-10-15T09:26:30;92412.53;;;22.96;29.76
61963;BME280;47927;42.646;23.096;2022-10-15T09:32:27;92413.63;;;22.86;29.92
61963;BME280;47927;42.646;23.096;2022-10-15T09:37:42;92438.41;;;21.13;32.64
61963;BME280;47927;42.646;23.096;2022-10-15T09:43:11;92418.69;;;20.85;31.77
61963;BME280;47927;42.646;23.096;2022-10-15T09:45:37;92421.34;;;21.43;31.02
61963;BME280;47927;42.646;23.096;2022-10-15T09:48:14;92426.63;;;22.23;29.37
61963;BME280;47927;42.646;23.096;2022-10-15T09:50:49;92442.38;;;21.34;30.15
61963;BME280;47927;42.646;23.096;2022-10-15T09:56:11;92416.97;;;22.17;30.01
61963;BME280;47927;42.646;23.096;2022-10-15T09:58:57;92430.03;;;21.14;31.28
61963;BME280;47927;42.646;23.096;2022-10-15T10:01:24;92432.00;;;20.98;30.50
61963;BME280;47927;42.646;23.096;2022-10-15T10:03:53;92443.53;;;20.75;31.46
61963;BME280;47927;42.646;23.096;2022-10-15T10:06:21;92436.56;;;19.83;32.96
61963;BME280;47927;42.646;23.096;2022-10-15T10:08:55;92455.84;;;19.99;33.02
61963;BME280;47927;42.646;23.096;2022-10-15T10:11:22;92435.75;;;20.02;33.15
61963;BME280;47927;42.646;23.096;2022-10-15T10:13:49;92435.69;;;20.06;32.65
61963;BME280;47927;42.646;23.096;2022-10-15T10:16:17;92427.41;;;19.87;32.80
61963;BME280;47927;42.646;23.096;2022-10-15T10:19:01;92434.94;;;20.05;32.58
61963;BME280;47927;42.646;23.096;2022-10-15T10:21:32;92424.41;;;19.29;33.38
61963;BME280;47927;42.646;23.096;2022-10-15T10:26:44;92428.19;;;19.08;34.70
61963;BME280;47927;42.646;23.096;2022-10-15T10:29:19;92436.03;;;18.68;34.86
61963;BME280;47927;42.646;23.096;2022-10-15T10:31:46;92416.25;;;18.80;34.25
61963;BME280;47927;42.646;23.096;2022-10-15T10:34:27;92426.84;;;19.20;34.82
61963;BME280;47927;42.646;23.096;2022-10-15T10:36:54;92428.94;;;19.08;34.66
61963;BME280;47927;42.646;23.096;2022-10-15T10:39:26;92431.34;;;19.59;33.28
61963;BME280;47927;42.646;23.096;2022-10-15T10:47:16;92418.53;;;18.07;36.60
61963;BME280;47927;42.646;23.096;2022-10-15T10:49:45;92425.00;;;18.53;35.69
61963;BME280;47927;42.646;23.096;2022-10-15T10:52:37;92412.97;;;18.96;34.39
61963;BME280;47927;42.646;23.096;2022-10-15T10:55:15;92417.28;;;18.86;34.86
61963;BME280;47927;42.646;23.096;2022-10-15T10:57:44;92429.41;;;18.83;34.42
61963;BME280;47927;42.646;23.096;2022-10-15T11:00:42;92426.28;;;18.18;35.70
61963;BME280;47927;42.646;23.096;2022-10-15T11:03:34;92421.63;;;18.02;35.85
61963;BME280;47927;42.646;23.096;2022-10-15T11:11:36;92400.50;;;17.48;36.84
61963;BME280;47927;42.646;23.096;2022-10-15T11:39:02;92418.09;;;16.93;37.11
61963;BME280;47927;42.646;23.096;2022-10-15T11:50:16;92409.00;;;16.98;37.61
61963;BME280;47927;42.646;23.096;2022-10-15T12:01:03;92393.22;;;17.59;37.80
61963;BME280;47927;42.646;23.096;2022-10-15T12:03:35;92409.38;;;17.61;37.84
61963;BME280;47927;42.646;23.096;2022-10-15T12:06:12;92409.38;;;18.15;37.35
61963;BME280;47927;42.646;23.096;2022-10-15T12:08:41;92419.75;;;17.72;37.46
61963;BME280;47927;42.646;23.096;2022-10-15T12:19:28;92409.03;;;18.13;37.17
61963;BME280;47927;42.646;23.096;2022-10-15T12:22:02;92426.31;;;18.41;36.78
61963;BME280;47927;42.646;23.096;2022-10-15T12:35:15;92399.31;;;16.91;39.24
61963;BME280;47927;42.646;23.096;2022-10-15T12:37:44;92408.81;;;17.46;38.83
61963;BME280;47927;42.646;23.096;2022-10-15T12:40:26;92402.22;;;17.31;37.69
61963;BME280;47927;42.646;23.096;2022-10-15T12:42:55;92388.22;;;17.38;38.50
61963;BME280;47927;42.646;23.096;2022-10-15T12:45:38;92399.31;;;16.91;38.81
61963;BME280;47927;42.646;23.096;2022-10-15T12:50:32;92385.81;;;18.05;37.82
61963;BME280;47927;42.646;23.096;2022-10-15T12:56:11;92388.16;;;18.46;36.50
61963;BME280;47927;42.646;23.096;2022-10-15T12:58:46;92389.47;;;18.11;36.81
61963;BME280;47927;42.646;23.096;2022-10-15T13:09:36;92394.31;;;16.21;40.55
61963;BME280;47927;42.646;23.096;2022-10-15T13:11:45;92391.19;;;15.88;41.59
61963;BME280;47927;42.646;23.096;2022-10-15T13:14:28;92382.16;;;15.89;42.15
61963;BME280;47927;42.646;23.096;2022-10-15T13:16:59;92386.88;;;16.54;40.82
61963;BME280;47927;42.646;23.096;2022-10-15T13:19:35;92379.38;;;16.11;40.96
61963;BME280;47927;42.646;23.096;2022-10-15T13:22:05;92389.59;;;15.35;42.99
61963;BME280;47927;42.646;23.096;2022-10-15T13:24:39;92381.50;;;15.78;42.67
61963;BME280;47927;42.646;23.096;2022-10-15T13:27:18;92391.91;;;15.92;42.29
61963;BME280;47927;42.646;23.096;2022-10-15T13:29:58;92372.50;;;15.76;42.17
61963;BME280;47927;42.646;23.096;2022-10-15T13:32:27;92395.44;;;15.61;42.89
61963;BME280;47927;42.646;23.096;2022-10-15T13:34:53;92380.16;;;15.45;43.44
61963;BME280;47927;42.646;23.096;2022-10-15T13:37:33;92390.06;;;15.16;44.61
61963;BME280;47927;42.646;23.096;2022-10-15T13:40:02;92388.41;;;15.47;43.93
61963;BME280;47927;42.646;23.096;2022-10-15T13:42:28;92386.81;;;15.60;43.70
61963;BME280;47927;42.646;23.096;2022-10-15T13:45:22;92385.09;;;15.36;44.13
61963;BME280;47927;42.646;23.096;2022-10-15T13:47:48;92391.03;;;15.43;44.55
61963;BME280;47927;42.646;23.096;2022-10-15T13:52:59;92379.16;;;15.21;45.01
61963;BME280;47927;42.646;23.096;2022-10-15T13:55:31;92397.69;;;14.74;46.40
61963;BME280;47927;42.646;23.096;2022-10-15T13:58:00;92390.19;;;14.80;46.44
61963;BME280;47927;42.646;23.096;2022-10-15T14:00:32;92380.28;;;15.23;45.45
61963;BME280;47927;42.646;23.096;2022-10-15T14:03:12;92384.88;;;15.05;45.31
61963;BME280;47927;42.646;23.096;2022-10-15T14:05:39;92381.63;;;14.62;47.08
61963;BME280;47927;42.646;23.096;2022-10-15T14:08:04;92361.41;;;14.58;46.93
61963;BME280;47927;42.646;23.096;2022-10-15T14:10:30;92390.22;;;14.73;46.59
61963;BME280;47927;42.646;23.096;2022-10-15T14:12:56;92372.97;;;14.75;46.92
61963;BME280;47927;42.646;23.096;2022-10-15T14:18:24;92391.75;;;14.34;47.71
61963;BME280;47927;42.646;23.096;2022-10-15T14:20:52;92375.28;;;14.41;47.74
61963;BME280;47927;42.646;23.096;2022-10-15T14:23:21;92370.38;;;14.65;47.06
61963;BME280;47927;42.646;23.096;2022-10-15T14:26:13;92378.91;;;14.97;46.24
61963;BME280;47927;42.646;23.096;2022-10-15T14:28:42;92375.13;;;15.02;45.72
61963;BME280;47927;42.646;23.096;2022-10-15T14:31:28;92399.84;;;15.04;45.54
61963;BME280;47927;42.646;23.096;2022-10-15T14:33:54;92376.22;;;15.12;45.55
61963;BME280;47927;42.646;23.096;2022-10-15T14:38:45;92381.94;;;14.85;46.16
61963;BME280;47927;42.646;23.096;2022-10-15T14:43:45;92394.59;;;15.12;45.53
61963;BME280;47927;42.646;23.096;2022-10-15T14:46:23;92392.09;;;14.76;46.39
61963;BME280;47927;42.646;23.096;2022-10-15T14:48:49;92358.41;;;14.42;46.53
61963;BME280;47927;42.646;23.096;2022-10-15T14:51:23;92396.97;;;14.45;47.42
61963;BME280;47927;42.646;23.096;2022-10-15T14:53:51;92394.00;;;14.43;47.29
61963;BME280;47927;42.646;23.096;2022-10-15T14:56:23;92397.38;;;14.33;47.17
61963;BME280;47927;42.646;23.096;2022-10-15T14:58:54;92407.50;;;14.02;48.23
61963;BME280;47927;42.646;23.096;2022-10-15T15:01:21;92404.50;;;14.29;47.59
61963;BME280;47927;42.646;23.096;2022-10-15T15:03:50;92408.97;;;13.75;48.86
61963;BME280;47927;42.646;23.096;2022-10-15T15:06:16;92402.25;;;13.84;48.42
61963;BME280;47927;42.646;23.096;2022-10-15T15:08:42;92409.34;;;13.91;48.19
61963;BME280;47927;42.646;23.096;2022-10-15T15:11:13;92402.22;;;13.66;49.02
61963;BME280;47927;42.646;23.096;2022-10-15T15:13:42;92405.91;;;13.44;49.36
61963;BME280;47927;42.646;23.096;2022-10-15T15:16:11;92397.59;;;13.20;49.98
61963;BME280;47927;42.646;23.096;2022-10-15T15:18:38;92418.31;;;13.76;49.27
61963;BME280;47927;42.646;23.096;2022-10-15T15:21:05;92414.16;;;13.53;49.24
61963;BME280;47927;42.646;23.096;2022-10-15T15:23:33;92417.22;;;13.84;48.49
61963;BME280;47927;42.646;23.096;2022-10-15T15:25:59;92419.44;;;13.89;48.55
61963;BME280;47927;42.646;23.096;2022-10-15T15:28:26;92421.63;;;13.40;49.52
61963;BME280;47927;42.646;23.096;2022-10-15T15:31:01;92426.53;;;13.63;48.90
61963;BME280;47927;42.646;23.096;2022-10-15T15:33:29;92419.47;;;13.82;48.50
61963;BME280;47927;42.646;23.096;2022-10-15T15:36:12;92430.66;;;13.64;49.14
61963;BME280;47927;42.646;23.096;2022-10-15T15:38:38;92422.34;;;13.37;49.64
61963;BME280;47927;42.646;23.096;2022-10-15T15:41:16;92434.78;;;13.65;48.88